sensor_id;sensor_type;location;lat;lon;timestamp;temperature;humidity
19174;DHT22;9719;49.322;8.536;2023-03-01T00:01:17;-0.30;73.40
19174;DHT22;9719;49.322;8.536;2023-03-01T00:06:20;-0.20;73.50
19174;DHT22;9719;49.322;8.536;2023-03-01T00:11:24;-0.10;73.40
19174;DHT22;9719;49.322;8.536;2023-03-01T00:16:29;-0.10;73.60
19174;DHT22;9719;49.322;8.536;2023-03-01T00:21:31;-0.10;74.00
19174;DHT22;9719;49.322;8.536;2023-03-01T00:26:32;-0.10;74.00
19174;DHT22;9719;49.322;8.536;2023-03-01T00:31:35;-0.10;74.50
19174;DHT22;9719;49.322;8.536;2023-03-01T00:36:37;-0.10;74.40
19174;DHT22;9719;49.322;8.536;2023-03-01T00:41:39;-0.10;74.80
19174;DHT22;9719;49.322;8.536;2023-03-01T00:46:42;-0.10;76.00
19174;DHT22;9719;49.322;8.536;2023-03-01T00:51:44;0.00;75.30
19174;DHT22;9719;49.322;8.536;2023-03-01T00:56:46;0.00;75.40
19174;DHT22;9719;49.322;8.536;2023-03-01T01:01:49;0.00;76.00
19174;DHT22;9719;49.322;8.536;2023-03-01T01:06:50;0.00;76.00
19174;DHT22;9719;49.322;8.536;2023-03-01T01:11:52;0.00;75.80
19174;DHT22;9719;49.322;8.536;2023-03-01T01:16:55;0.00;76.20
19174;DHT22;9719;49.322;8.536;2023-03-01T01:21:57;0.00;76.60
19174;DHT22;9719;49.322;8.536;2023-03-01T01:26:59;0.00;77.30
19174;DHT22;9719;49.322;8.536;2023-03-01T01:32:01;0.00;77.20
19174;DHT22;9719;49.322;8.536;2023-03-01T01:37:03;0.00;77.10
19174;DHT22;9719;49.322;8.536;2023-03-01T01:42:13;-0.10;76.50
19174;DHT22;9719;49.322;8.536;2023-03-01T01:47:19;-0.10;77.00
19174;DHT22;9719;49.322;8.536;2023-03-01T01:52:23;-0.30;77.10
19174;DHT22;9719;49.322;8.536;2023-03-01T01:57:33;-0.40;76.90
19174;DHT22;9719;49.322;8.536;2023-03-01T02:02:37;-0.60;77.00
19174;DHT22;9719;49.322;8.536;2023-03-01T02:07:40;-0.70;77.60
19174;DHT22;9719;49.322;8.536;2023-03-01T02:12:43;-0.80;78.40
19174;DHT22;9719;49.322;8.536;2023-03-01T02:17:46;-0.80;78.30
19174;DHT22;9719;49.322;8.536;2023-03-01T02:22:48;-0.70;78.20
19174;DHT22;9719;49.322;8.536;2023-03-01T02:27:58;-0.70;78.20
19174;DHT22;9719;49.322;8.536;2023-03-01T02:33:05;-0.70;78.80
19174;DHT22;9719;49.322;8.536;2023-03-01T02:38:07;-0.70;78.70
19174;DHT22;9719;49.322;8.536;2023-03-01T02:43:10;-0.70;78.50
19174;DHT22;9719;49.322;8.536;2023-03-01T02:48:14;-0.80;79.10
19174;DHT22;9719;49.322;8.536;2023-03-01T02:53:21;-0.90;78.30
19174;DHT22;9719;49.322;8.536;2023-03-01T02:58:27;-1.00;78.60
19174;DHT22;9719;49.322;8.536;2023-03-01T03:03:30;-1.20;79.20
19174;DHT22;9719;49.322;8.536;2023-03-01T03:08:31;-1.20;81.70
19174;DHT22;9719;49.322;8.536;2023-03-01T03:13:33;-1.30;81.00
19174;DHT22;9719;49.322;8.536;2023-03-01T03:18:36;-1.40;81.30
19174;DHT22;9719;49.322;8.536;2023-03-01T03:23:38;-1.40;80.80
19174;DHT22;9719;49.322;8.536;2023-03-01T03:28:39;-1.60;80.60
19174;DHT22;9719;49.322;8.536;2023-03-01T03:33:42;-1.70;81.50
19174;DHT22;9719;49.322;8.536;2023-03-01T03:38:44;-1.80;81.60
19174;DHT22;9719;49.322;8.536;2023-03-01T03:43:46;-1.90;81.10
19174;DHT22;9719;49.322;8.536;2023-03-01T03:48:50;-2.00;80.70
19174;DHT22;9719;49.322;8.536;2023-03-01T03:53:52;-2.10;81.40
19174;DHT22;9719;49.322;8.536;2023-03-01T03:58:53;-2.20;82.50
19174;DHT22;9719;49.322;8.536;2023-03-01T04:03:56;-2.20;83.50
19174;DHT22;9719;49.322;8.536;2023-03-01T04:09:04;-2.10;84.90
19174;DHT22;9719;49.322;8.536;2023-03-01T04:14:06;-2.10;83.10
19174;DHT22;9719;49.322;8.536;2023-03-01T04:19:09;-2.20;83.30
19174;DHT22;9719;49.322;8.536;2023-03-01T04:24:11;-2.20;83.80
19174;DHT22;9719;49.322;8.536;2023-03-01T04:29:12;-2.30;83.90
19174;DHT22;9719;49.322;8.536;2023-03-01T04:34:15;-2.30;84.40
19174;DHT22;9719;49.322;8.536;2023-03-01T04:39:17;-2.30;84.50
19174;DHT22;9719;49.322;8.536;2023-03-01T04:44:19;-2.30;85.70
19174;DHT22;9719;49.322;8.536;2023-03-01T04:49:22;-2.30;85.10
19174;DHT22;9719;49.322;8.536;2023-03-01T04:54:23;-2.20;86.10
19174;DHT22;9719;49.322;8.536;2023-03-01T04:59:25;-2.10;87.40
19174;DHT22;9719;49.322;8.536;2023-03-01T05:04:28;-1.90;87.30
19174;DHT22;9719;49.322;8.536;2023-03-01T05:09:30;-1.80;87.40
19174;DHT22;9719;49.322;8.536;2023-03-01T05:14:31;-1.70;87.20
19174;DHT22;9719;49.322;8.536;2023-03-01T05:19:35;-1.60;87.20
19174;DHT22;9719;49.322;8.536;2023-03-01T05:24:36;-1.60;87.30
19174;DHT22;9719;49.322;8.536;2023-03-01T05:29:39;-1.60;87.20
19174;DHT22;9719;49.322;8.536;2023-03-01T05:34:42;-1.70;87.20
19174;DHT22;9719;49.322;8.536;2023-03-01T05:39:44;-1.80;87.30
19174;DHT22;9719;49.322;8.536;2023-03-01T05:44:46;-1.90;86.50
19174;DHT22;9719;49.322;8.536;2023-03-01T05:49:49;-2.00;86.30
19174;DHT22;9719;49.322;8.536;2023-03-01T05:54:50;-2.00;87.50
19174;DHT22;9719;49.322;8.536;2023-03-01T05:59:52;-2.10;87.90
19174;DHT22;9719;49.322;8.536;2023-03-01T06:04:55;-2.10;87.50
19174;DHT22;9719;49.322;8.536;2023-03-01T06:09:57;-2.20;87.20
19174;DHT22;9719;49.322;8.536;2023-03-01T06:14:58;-2.20;86.40
19174;DHT22;9719;49.322;8.536;2023-03-01T06:20:02;-2.20;88.20
19174;DHT22;9719;49.322;8.536;2023-03-01T06:25:05;-2.20;87.20
19174;DHT22;9719;49.322;8.536;2023-03-01T06:30:08;-2.20;87.00
19174;DHT22;9719;49.322;8.536;2023-03-01T06:35:13;-2.20;87.90
19174;DHT22;9719;49.322;8.536;2023-03-01T06:40:18;-2.10;88.00
19174;DHT22;9719;49.322;8.536;2023-03-01T06:45:20;-2.00;88.90
19174;DHT22;9719;49.322;8.536;2023-03-01T06:50:23;-1.80;90.10
19174;DHT22;9719;49.322;8.536;2023-03-01T06:55:25;-1.50;90.10
19174;DHT22;9719;49.322;8.536;2023-03-01T07:00:28;-1.30;90.10
19174;DHT22;9719;49.322;8.536;2023-03-01T07:05:32;-1.00;90.10
19174;DHT22;9719;49.322;8.536;2023-03-01T07:10:34;-0.80;90.10
19174;DHT22;9719;49.322;8.536;2023-03-01T07:15:36;-0.60;90.10
19174;DHT22;9719;49.322;8.536;2023-03-01T07:20:39;-0.40;89.70
19174;DHT22;9719;49.322;8.536;2023-03-01T07:25:40;-0.30;89.60
19174;DHT22;9719;49.322;8.536;2023-03-01T07:30:42;-0.10;89.40
19174;DHT22;9719;49.322;8.536;2023-03-01T07:35:45;0.10;89.10
19174;DHT22;9719;49.322;8.536;2023-03-01T07:40:47;0.40;89.80
19174;DHT22;9719;49.322;8.536;2023-03-01T07:45:48;0.80;90.00
19174;DHT22;9719;49.322;8.536;2023-03-01T07:50:51;1.20;88.60
19174;DHT22;9719;49.322;8.536;2023-03-01T07:56:01;1.60;88.20
19174;DHT22;9719;49.322;8.536;2023-03-01T08:01:03;1.90;87.30
19174;DHT22;9719;49.322;8.536;2023-03-01T08:06:08;2.30;86.60
19174;DHT22;9719;49.322;8.536;2023-03-01T08:11:12;2.60;86.10
19174;DHT22;9719;49.322;8.536;2023-03-01T08:16:15;2.80;85.10
19174;DHT22;9719;49.322;8.536;2023-03-01T08:21:18;3.10;84.10
19174;DHT22;9719;49.322;8.536;2023-03-01T08:26:21;3.40;83.40
19174;DHT22;9719;49.322;8.536;2023-03-01T08:31:26;3.70;82.70
19174;DHT22;9719;49.322;8.536;2023-03-01T08:36:32;4.00;81.70
19174;DHT22;9719;49.322;8.536;2023-03-01T08:41:34;4.30;80.70
19174;DHT22;9719;49.322;8.536;2023-03-01T08:46:38;4.50;80.30
19174;DHT22;9719;49.322;8.536;2023-03-01T08:51:42;4.70;79.30
19174;DHT22;9719;49.322;8.536;2023-03-01T08:56:44;4.90;78.10
19174;DHT22;9719;49.322;8.536;2023-03-01T09:01:46;5.10;77.50
19174;DHT22;9719;49.322;8.536;2023-03-01T09:06:49;5.40;76.40
19174;DHT22;9719;49.322;8.536;2023-03-01T09:11:51;5.60;75.60
19174;DHT22;9719;49.322;8.536;2023-03-01T09:16:52;5.80;74.70
19174;DHT22;9719;49.322;8.536;2023-03-01T09:21:55;6.10;73.30
19174;DHT22;9719;49.322;8.536;2023-03-01T09:26:58;6.40;72.80
19174;DHT22;9719;49.322;8.536;2023-03-01T09:32:00;6.70;71.90
19174;DHT22;9719;49.322;8.536;2023-03-01T09:37:03;7.60;72.60
19174;DHT22;9719;49.322;8.536;2023-03-01T09:42:05;11.40;71.50
19174;DHT22;9719;49.322;8.536;2023-03-01T09:47:10;14.80;66.70
19174;DHT22;9719;49.322;8.536;2023-03-01T09:52:23;17.20;58.20
19174;DHT22;9719;49.322;8.536;2023-03-01T09:57:31;19.40;54.60
19174;DHT22;9719;49.322;8.536;2023-03-01T10:02:39;21.20;51.10
19174;DHT22;9719;49.322;8.536;2023-03-01T10:07:52;22.50;46.20
19174;DHT22;9719;49.322;8.536;2023-03-01T10:12:56;23.70;43.00
19174;DHT22;9719;49.322;8.536;2023-03-01T10:18:02;24.60;40.70
19174;DHT22;9719;49.322;8.536;2023-03-01T10:23:09;25.60;36.70
19174;DHT22;9719;49.322;8.536;2023-03-01T10:28:16;26.30;35.30
19174;DHT22;9719;49.322;8.536;2023-03-01T10:33:21;27.20;33.40
19174;DHT22;9719;49.322;8.536;2023-03-01T10:38:25;27.20;30.90
19174;DHT22;9719;49.322;8.536;2023-03-01T10:43:40;27.60;30.60
19174;DHT22;9719;49.322;8.536;2023-03-01T10:48:44;28.80;29.70
19174;DHT22;9719;49.322;8.536;2023-03-01T10:53:49;29.30;29.00
19174;DHT22;9719;49.322;8.536;2023-03-01T10:58:59;30.50;27.80
19174;DHT22;9719;49.322;8.536;2023-03-01T11:04:11;31.40;26.60
19174;DHT22;9719;49.322;8.536;2023-03-01T11:09:17;32.40;25.80
19174;DHT22;9719;49.322;8.536;2023-03-01T11:14:22;33.00;25.40
19174;DHT22;9719;49.322;8.536;2023-03-01T11:19:24;34.10;25.00
19174;DHT22;9719;49.322;8.536;2023-03-01T11:24:31;34.70;24.20
19174;DHT22;9719;49.322;8.536;2023-03-01T11:29:39;35.20;23.40
19174;DHT22;9719;49.322;8.536;2023-03-01T11:34:45;35.90;22.90
19174;DHT22;9719;49.322;8.536;2023-03-01T11:39:56;35.80;22.30
19174;DHT22;9719;49.322;8.536;2023-03-01T11:45:04;36.40;21.90
19174;DHT22;9719;49.322;8.536;2023-03-01T11:50:16;37.00;21.30
19174;DHT22;9719;49.322;8.536;2023-03-01T11:55:30;37.80;20.90
19174;DHT22;9719;49.322;8.536;2023-03-01T12:01:02;39.20;20.60
19174;DHT22;9719;49.322;8.536;2023-03-01T12:06:39;40.10;19.70
19174;DHT22;9719;49.322;8.536;2023-03-01T12:12:02;41.40;19.10
19174;DHT22;9719;49.322;8.536;2023-03-01T12:17:21;42.70;19.00
19174;DHT22;9719;49.322;8.536;2023-03-01T12:22:30;43.70;18.50
19174;DHT22;9719;49.322;8.536;2023-03-01T12:27:47;43.80;17.80
19174;DHT22;9719;49.322;8.536;2023-03-01T12:33:03;44.60;17.60
19174;DHT22;9719;49.322;8.536;2023-03-01T12:38:22;44.50;17.20
19174;DHT22;9719;49.322;8.536;2023-03-01T12:43:38;44.60;17.30
19174;DHT22;9719;49.322;8.536;2023-03-01T12:48:47;44.30;17.10
19174;DHT22;9719;49.322;8.536;2023-03-01T12:53:53;44.10;17.20
19174;DHT22;9719;49.322;8.536;2023-03-01T12:59:01;44.20;17.20
19174;DHT22;9719;49.322;8.536;2023-03-01T13:04:20;44.40;16.80
19174;DHT22;9719;49.322;8.536;2023-03-01T13:09:29;44.50;17.00
19174;DHT22;9719;49.322;8.536;2023-03-01T13:14:37;44.20;16.90
19174;DHT22;9719;49.322;8.536;2023-03-01T13:19:56;43.60;16.70
19174;DHT22;9719;49.322;8.536;2023-03-01T13:25:10;43.00;16.60
19174;DHT22;9719;49.322;8.536;2023-03-01T13:30:41;42.60;16.90
19174;DHT22;9719;49.322;8.536;2023-03-01T13:35:44;42.20;16.80
19174;DHT22;9719;49.322;8.536;2023-03-01T13:40:59;41.30;17.00
19174;DHT22;9719;49.322;8.536;2023-03-01T13:46:08;40.70;16.80
19174;DHT22;9719;49.322;8.536;2023-03-01T13:51:12;40.60;17.30
19174;DHT22;9719;49.322;8.536;2023-03-01T13:56:16;39.80;17.40
19174;DHT22;9719;49.322;8.536;2023-03-01T14:01:24;38.80;17.50
19174;DHT22;9719;49.322;8.536;2023-03-01T14:06:27;37.40;17.80
19174;DHT22;9719;49.322;8.536;2023-03-01T14:12:04;33.60;18.40
19174;DHT22;9719;49.322;8.536;2023-03-01T14:17:20;29.20;20.50
19174;DHT22;9719;49.322;8.536;2023-03-01T14:22:27;25.20;22.80
19174;DHT22;9719;49.322;8.536;2023-03-01T14:27:32;22.10;24.40
19174;DHT22;9719;49.322;8.536;2023-03-01T14:32:36;19.90;26.20
19174;DHT22;9719;49.322;8.536;2023-03-01T14:37:40;18.10;28.10
19174;DHT22;9719;49.322;8.536;2023-03-01T14:42:41;16.70;29.70
19174;DHT22;9719;49.322;8.536;2023-03-01T14:47:44;15.70;30.10
19174;DHT22;9719;49.322;8.536;2023-03-01T14:52:48;14.90;31.90
19174;DHT22;9719;49.322;8.536;2023-03-01T14:57:52;14.20;33.20
19174;DHT22;9719;49.322;8.536;2023-03-01T15:03:07;13.60;35.00
19174;DHT22;9719;49.322;8.536;2023-03-01T15:08:18;13.20;34.80
19174;DHT22;9719;49.322;8.536;2023-03-01T15:13:22;12.90;36.30
19174;DHT22;9719;49.322;8.536;2023-03-01T15:18:28;12.50;36.70
19174;DHT22;9719;49.322;8.536;2023-03-01T15:23:30;12.30;37.60
19174;DHT22;9719;49.322;8.536;2023-03-01T15:28:34;12.00;38.00
19174;DHT22;9719;49.322;8.536;2023-03-01T15:33:40;11.90;38.50
19174;DHT22;9719;49.322;8.536;2023-03-01T15:38:52;11.70;38.80
19174;DHT22;9719;49.322;8.536;2023-03-01T15:43:55;11.50;40.50
19174;DHT22;9719;49.322;8.536;2023-03-01T15:49:00;11.30;41.30
19174;DHT22;9719;49.322;8.536;2023-03-01T15:54:17;11.10;42.30
19174;DHT22;9719;49.322;8.536;2023-03-01T15:59:19;11.00;41.60
19174;DHT22;9719;49.322;8.536;2023-03-01T16:04:23;10.70;43.60
19174;DHT22;9719;49.322;8.536;2023-03-01T16:09:26;10.50;43.80
19174;DHT22;9719;49.322;8.536;2023-03-01T16:14:28;10.40;43.70
19174;DHT22;9719;49.322;8.536;2023-03-01T16:19:31;10.20;44.20
19174;DHT22;9719;49.322;8.536;2023-03-01T16:24:33;10.00;44.60
19174;DHT22;9719;49.322;8.536;2023-03-01T16:29:36;9.80;44.60
19174;DHT22;9719;49.322;8.536;2023-03-01T16:34:39;9.60;45.50
19174;DHT22;9719;49.322;8.536;2023-03-01T16:39:41;9.40;45.40
19174;DHT22;9719;49.322;8.536;2023-03-01T16:44:42;9.20;45.90
19174;DHT22;9719;49.322;8.536;2023-03-01T16:49:45;8.90;47.10
19174;DHT22;9719;49.322;8.536;2023-03-01T16:54:47;8.60;47.00
19174;DHT22;9719;49.322;8.536;2023-03-01T16:59:51;8.40;46.80
19174;DHT22;9719;49.322;8.536;2023-03-01T17:04:55;8.10;48.40
19174;DHT22;9719;49.322;8.536;2023-03-01T17:09:56;7.80;49.10
19174;DHT22;9719;49.322;8.536;2023-03-01T17:14:58;7.60;49.10
19174;DHT22;9719;49.322;8.536;2023-03-01T17:20:03;7.40;49.20
19174;DHT22;9719;49.322;8.536;2023-03-01T17:25:07;7.20;50.20
19174;DHT22;9719;49.322;8.536;2023-03-01T17:30:11;7.00;50.10
19174;DHT22;9719;49.322;8.536;2023-03-01T17:35:15;6.80;50.60
19174;DHT22;9719;49.322;8.536;2023-03-01T17:40:17;6.60;50.60
19174;DHT22;9719;49.322;8.536;2023-03-01T17:45:18;6.30;51.10
19174;DHT22;9719;49.322;8.536;2023-03-01T17:50:21;6.10;52.00
19174;DHT22;9719;49.322;8.536;2023-03-01T17:55:23;5.90;52.00
19174;DHT22;9719;49.322;8.536;2023-03-01T18:00:25;5.70;52.60
19174;DHT22;9719;49.322;8.536;2023-03-01T18:05:31;5.60;52.30
19174;DHT22;9719;49.322;8.536;2023-03-01T18:10:33;5.40;53.10
19174;DHT22;9719;49.322;8.536;2023-03-01T18:15:36;5.30;53.50
19174;DHT22;9719;49.322;8.536;2023-03-01T18:20:39;5.10;53.70
19174;DHT22;9719;49.322;8.536;2023-03-01T18:25:40;5.00;54.20
19174;DHT22;9719;49.322;8.536;2023-03-01T18:30:42;4.90;55.10
19174;DHT22;9719;49.322;8.536;2023-03-01T18:35:45;4.80;55.10
19174;DHT22;9719;49.322;8.536;2023-03-01T18:40:47;4.70;55.50
19174;DHT22;9719;49.322;8.536;2023-03-01T18:45:55;4.60;55.20
19174;DHT22;9719;49.322;8.536;2023-03-01T18:51:06;4.50;56.20
19174;DHT22;9719;49.322;8.536;2023-03-01T18:56:09;4.40;56.40
19174;DHT22;9719;49.322;8.536;2023-03-01T19:01:13;4.20;56.40
19174;DHT22;9719;49.322;8.536;2023-03-01T19:06:17;4.10;57.70
19174;DHT22;9719;49.322;8.536;2023-03-01T19:11:19;4.00;57.70
19174;DHT22;9719;49.322;8.536;2023-03-01T19:16:23;3.80;57.40
19174;DHT22;9719;49.322;8.536;2023-03-01T19:21:29;3.70;57.90
19174;DHT22;9719;49.322;8.536;2023-03-01T19:26:31;3.60;58.50
19174;DHT22;9719;49.322;8.536;2023-03-01T19:31:33;3.50;58.50
19174;DHT22;9719;49.322;8.536;2023-03-01T19:36:36;3.40;59.20
19174;DHT22;9719;49.322;8.536;2023-03-01T19:41:38;3.40;60.10
19174;DHT22;9719;49.322;8.536;2023-03-01T19:46:40;3.40;60.00
19174;DHT22;9719;49.322;8.536;2023-03-01T19:51:43;3.30;60.30
19174;DHT22;9719;49.322;8.536;2023-03-01T19:56:45;3.20;60.90
19174;DHT22;9719;49.322;8.536;2023-03-01T20:01:47;3.20;61.40
19174;DHT22;9719;49.322;8.536;2023-03-01T20:06:50;3.10;61.20
19174;DHT22;9719;49.322;8.536;2023-03-01T20:11:51;3.00;61.50
19174;DHT22;9719;49.322;8.536;2023-03-01T20:16:53;3.00;61.90
19174;DHT22;9719;49.322;8.536;2023-03-01T20:21:56;2.90;62.00
19174;DHT22;9719;49.322;8.536;2023-03-01T20:26:59;2.70;62.30
19174;DHT22;9719;49.322;8.536;2023-03-01T20:32:01;2.70;63.00
19174;DHT22;9719;49.322;8.536;2023-03-01T20:37:04;2.60;63.20
19174;DHT22;9719;49.322;8.536;2023-03-01T20:42:08;2.50;64.00
19174;DHT22;9719;49.322;8.536;2023-03-01T20:47:10;2.50;64.10
19174;DHT22;9719;49.322;8.536;2023-03-01T20:52:13;2.40;64.70
19174;DHT22;9719;49.322;8.536;2023-03-01T20:57:15;2.40;64.30
19174;DHT22;9719;49.322;8.536;2023-03-01T21:02:16;2.40;64.90
19174;DHT22;9719;49.322;8.536;2023-03-01T21:07:19;2.30;65.10
19174;DHT22;9719;49.322;8.536;2023-03-01T21:12:21;2.30;66.30
19174;DHT22;9719;49.322;8.536;2023-03-01T21:17:23;2.30;66.30
19174;DHT22;9719;49.322;8.536;2023-03-01T21:22:26;2.20;66.10
19174;DHT22;9719;49.322;8.536;2023-03-01T21:27:28;2.20;66.80
19174;DHT22;9719;49.322;8.536;2023-03-01T21:32:30;2.20;67.10
19174;DHT22;9719;49.322;8.536;2023-03-01T21:37:33;2.10;67.30
19174;DHT22;9719;49.322;8.536;2023-03-01T21:42:34;2.10;67.70
19174;DHT22;9719;49.322;8.536;2023-03-01T21:47:38;2.10;68.60
19174;DHT22;9719;49.322;8.536;2023-03-01T21:52:41;2.00;67.90
19174;DHT22;9719;49.322;8.536;2023-03-01T21:57:42;2.00;68.10
19174;DHT22;9719;49.322;8.536;2023-03-01T22:02:44;1.90;68.20
19174;DHT22;9719;49.322;8.536;2023-03-01T22:07:47;1.80;68.90
19174;DHT22;9719;49.322;8.536;2023-03-01T22:12:49;1.70;69.30
19174;DHT22;9719;49.322;8.536;2023-03-01T22:17:50;1.70;69.60
19174;DHT22;9719;49.322;8.536;2023-03-01T22:22:53;1.60;70.10
19174;DHT22;9719;49.322;8.536;2023-03-01T22:27:55;1.60;70.10
19174;DHT22;9719;49.322;8.536;2023-03-01T22:32:57;1.60;70.90
19174;DHT22;9719;49.322;8.536;2023-03-01T22:38:00;1.60;71.00
19174;DHT22;9719;49.322;8.536;2023-03-01T22:43:01;1.50;70.80
19174;DHT22;9719;49.322;8.536;2023-03-01T22:48:03;1.50;71.10
19174;DHT22;9719;49.322;8.536;2023-03-01T22:53:06;1.40;71.40
19174;DHT22;9719;49.322;8.536;2023-03-01T22:58:08;1.40;72.70
19174;DHT22;9719;49.322;8.536;2023-03-01T23:03:10;1.40;73.90
19174;DHT22;9719;49.322;8.536;2023-03-01T23:08:13;1.50;73.20
19174;DHT22;9719;49.322;8.536;2023-03-01T23:13:14;1.50;72.90
19174;DHT22;9719;49.322;8.536;2023-03-01T23:18:16;1.50;73.70
19174;DHT22;9719;49.322;8.536;2023-03-01T23:23:19;1.40;73.50
19174;DHT22;9719;49.322;8.536;2023-03-01T23:28:21;1.20;74.00
19174;DHT22;9719;49.322;8.536;2023-03-01T23:33:23;1.20;74.20
19174;DHT22;9719;49.322;8.536;2023-03-01T23:38:26;1.10;75.70
19174;DHT22;9719;49.322;8.536;2023-03-01T23:43:28;1.10;75.10
19174;DHT22;9719;49.322;8.536;2023-03-01T23:48:29;1.00;75.10
19174;DHT22;9719;49.322;8.536;2023-03-01T23:53:33;0.90;75.60
19174;DHT22;9719;49.322;8.536;2023-03-01T23:58:36;0.80;76.00
